createdAt,value
2019-06-07T00:53:10.718Z,99.90
2019-06-07T00:54:49.926Z,99.90
2019-06-07T00:57:22.149Z,99.90
2019-06-07T00:59:52.592Z,99.90
2019-06-07T01:30:41.633Z,99.90
2019-06-07T01:33:12.438Z,99.90
2019-06-07T01:35:43.475Z,99.90
2019-06-07T01:38:17.180Z,99.90
2019-06-07T01:40:47.879Z,99.90
2019-06-07T01:43:19.567Z,99.90
2019-06-07T01:45:52.207Z,99.90
2019-06-07T01:48:44.375Z,99.90
2019-06-07T01:51:06.674Z,99.90
2019-06-07T01:53:42.166Z,99.90
2019-06-07T01:56:57.316Z,99.90
2019-06-07T01:59:27.309Z,99.90
2019-06-07T02:01:57.774Z,99.90
2019-06-07T02:04:37.222Z,99.90
2019-06-07T02:07:15.043Z,99.90
2019-06-07T02:13:12.230Z,99.90
2019-06-07T02:15:49.701Z,99.90
2019-06-07T02:18:29.149Z,99.90
2019-06-07T02:21:01.499Z,99.90
2019-06-07T02:23:33.732Z,99.90
2019-06-07T02:26:04.811Z,99.90
2019-06-07T02:28:45.297Z,99.90
2019-06-07T02:31:09.789Z,99.90
2019-06-07T02:33:41.861Z,99.90
2019-06-07T02:36:12.689Z,99.90
2019-06-07T02:38:45.065Z,99.90
2019-06-07T02:41:15.939Z,99.90
2019-06-07T02:43:46.693Z,99.90
2019-06-07T02:46:34.349Z,99.90
2019-06-07T02:48:57.607Z,99.90
2019-06-07T02:51:35.754Z,99.90
2019-06-07T02:54:03.666Z,99.90
2019-06-07T02:56:44.863Z,99.90
2019-06-07T02:59:06.545Z,99.90
2019-06-07T03:01:41.885Z,99.90
2019-06-07T03:04:09.751Z,99.90
2019-06-07T03:06:43.915Z,99.90
2019-06-07T03:09:19.771Z,99.90
2019-06-07T03:11:52.370Z,99.90
2019-06-07T03:14:26.013Z,99.90
2019-06-07T03:17:10.078Z,99.90
2019-06-07T03:19:54.428Z,99.90
2019-06-07T03:22:39.900Z,99.90
2019-06-07T03:25:05.490Z,99.90
2019-06-07T03:27:55.884Z,99.90
2019-06-07T03:30:48.736Z,99.90
2019-06-07T03:33:22.338Z,99.90
2019-06-07T03:35:56.574Z,99.90
2019-06-07T03:38:28.266Z,99.90
2019-06-07T03:41:00.474Z,99.90
2019-06-07T03:43:37.773Z,99.90
2019-06-07T03:46:05.450Z,99.90
2019-06-07T03:48:39.602Z,99.90
2019-06-07T03:51:24.882Z,99.90
2019-06-07T03:53:48.794Z,99.90
2019-06-07T03:56:21.172Z,99.90
2019-06-07T03:58:55.951Z,99.90
2019-06-07T04:01:32.352Z,99.90
2019-06-07T04:04:09.079Z,99.90
2019-06-07T04:06:48.002Z,99.90
2019-06-07T04:09:25.129Z,99.90
2019-06-07T04:11:59.366Z,99.90
2019-06-07T04:14:37.688Z,99.90
2019-06-07T04:17:10.169Z,99.90
2019-06-07T04:19:47.512Z,99.90
2019-06-07T04:22:23.058Z,99.90
2019-06-07T04:24:59.838Z,99.90
2019-06-07T04:27:32.969Z,99.90
2019-06-07T04:30:08.066Z,99.90
2019-06-07T04:32:58.752Z,99.90
2019-06-07T04:35:31.443Z,99.90
2019-06-07T04:38:14.947Z,99.90
2019-06-07T04:41:00.997Z,99.90
2019-06-07T04:46:39.849Z,99.90
2019-06-07T04:49:15.825Z,99.90
2019-06-07T04:51:49.930Z,99.90
2019-06-07T04:54:22.481Z,99.90
2019-06-07T05:38:08.098Z,94.10
2019-06-07T05:41:24.681Z,93.20
2019-06-07T05:44:12.250Z,93.30
2019-06-07T05:46:37.968Z,93.30
2019-06-07T05:49:18.235Z,92.80
2019-06-07T05:52:59.353Z,92.60
2019-06-07T05:59:31.130Z,91.60
2019-06-07T06:02:22.778Z,92.00
2019-06-07T06:04:57.454Z,91.40
2019-06-07T06:10:29.997Z,91.20
2019-06-07T06:16:10.681Z,90.10
2019-06-07T06:19:09.382Z,88.90
2019-06-07T06:25:31.649Z,88.50
2019-06-07T06:28:10.186Z,88.40
2019-06-07T06:30:45.518Z,87.40
2019-06-07T06:33:34.837Z,86.60
2019-06-07T06:39:30.010Z,86.00
2019-06-07T06:42:14.184Z,85.20
2019-06-07T06:44:47.100Z,85.20
2019-06-07T06:47:20.686Z,84.10
2019-06-07T06:49:54.656Z,84.30
2019-06-07T06:52:26.056Z,83.50
2019-06-07T06:55:01.127Z,83.70
2019-06-07T06:57:33.537Z,82.70
2019-06-07T07:00:11.693Z,83.10
2019-06-07T07:03:33.076Z,82.10
2019-06-07T07:05:19.149Z,81.60
2019-06-07T07:07:52.884Z,81.30
2019-06-07T07:10:37.920Z,81.00
2019-06-07T07:13:08.986Z,81.70
2019-06-07T07:15:44.746Z,82.20
2019-06-07T07:18:16.749Z,82.00
2019-06-07T07:20:48.367Z,82.30
2019-06-07T07:23:20.374Z,81.10
2019-06-07T07:25:58.211Z,81.60
2019-06-07T07:28:24.251Z,81.70
2019-06-07T07:30:57.295Z,81.00
2019-06-07T07:34:27.364Z,81.80
2019-06-07T07:36:35.167Z,80.70
2019-06-07T07:38:48.920Z,80.70
2019-06-07T07:41:17.138Z,81.00
2019-06-07T07:43:54.584Z,81.00
2019-06-07T07:46:29.139Z,80.50
2019-06-07T07:48:56.295Z,79.80
2019-06-07T07:51:33.330Z,79.30
2019-06-07T07:54:10.570Z,79.40
2019-06-07T07:56:45.331Z,79.50
2019-06-07T07:59:40.618Z,80.10
2019-06-07T08:01:59.056Z,80.00
2019-06-07T08:05:12.723Z,78.60
2019-06-07T08:07:12.127Z,77.90
2019-06-07T08:09:44.353Z,78.20
2019-06-07T08:12:19.824Z,77.50
2019-06-07T08:14:57.480Z,78.20
2019-06-07T08:17:32.845Z,78.50
2019-06-07T08:20:03.924Z,77.70
2019-06-07T08:22:35.078Z,77.70
2019-06-07T08:25:06.335Z,78.30
2019-06-07T08:27:37.805Z,78.30
2019-06-07T08:30:46.564Z,78.20
2019-06-07T08:32:46.023Z,77.40
2019-06-07T08:36:03.195Z,77.20
2019-06-07T08:38:21.526Z,77.80
2019-06-07T08:40:34.421Z,77.30
2019-06-07T08:43:19.902Z,77.60
2019-06-07T08:45:44.580Z,77.60
2019-06-07T08:48:27.782Z,77.10
2019-06-07T08:51:02.227Z,76.60
2019-06-07T08:54:02.461Z,76.40
2019-06-07T08:56:32.359Z,76.30
2019-06-07T08:59:10.710Z,76.30
2019-06-07T09:01:37.191Z,76.20
2019-06-07T09:04:27.498Z,75.60
2019-06-07T09:07:18.816Z,75.10
2019-06-07T09:09:43.443Z,75.20
2019-06-07T09:12:20.143Z,75.20
2019-06-07T09:15:06.239Z,75.60
2019-06-07T09:18:29.472Z,75.70
2019-06-07T09:20:36.970Z,75.40
2019-06-07T09:26:19.816Z,71.10
2019-06-07T09:57:17.460Z,67.20
2019-06-07T09:59:45.465Z,67.60
2019-06-07T10:02:26.958Z,67.50
2019-06-07T10:05:14.036Z,67.10
2019-06-07T10:08:02.313Z,66.80
2019-06-07T10:10:36.157Z,65.40
2019-06-07T10:13:13.008Z,66.30
2019-06-07T10:15:56.186Z,66.70
2019-06-07T10:18:35.385Z,66.20
2019-06-07T10:21:15.133Z,66.60
2019-06-07T10:23:47.263Z,66.20
2019-06-07T10:26:20.745Z,66.80
2019-06-07T10:28:53.540Z,66.50
2019-06-07T10:31:24.385Z,66.00
2019-06-07T10:33:55.869Z,65.30
2019-06-07T10:36:26.528Z,65.10
2019-06-07T10:38:57.380Z,64.20
2019-06-07T10:41:28.340Z,64.20
2019-06-07T10:44:03.460Z,64.50
2019-06-07T10:46:39.302Z,64.10
2019-06-07T10:49:12.270Z,64.80
2019-06-07T10:51:55.210Z,63.80
2019-06-07T10:54:30.578Z,64.00
2019-06-07T10:56:58.935Z,63.80
2019-06-07T10:59:30.041Z,63.70
2019-06-07T11:02:00.941Z,64.40
2019-06-07T11:04:31.924Z,66.10
2019-06-07T11:07:06.466Z,67.00
2019-06-07T11:09:39.558Z,66.80
2019-06-07T11:12:12.442Z,66.50
2019-06-07T11:14:43.378Z,65.40
2019-06-07T11:17:17.921Z,63.80
2019-06-07T11:19:49.009Z,63.80
2019-06-07T11:22:21.366Z,63.40
2019-06-07T11:24:55.596Z,63.90
2019-06-07T11:27:26.794Z,63.20
2019-06-07T11:29:57.699Z,62.30
2019-06-07T11:32:29.371Z,62.00
2019-06-07T11:35:00.422Z,62.00
2019-06-07T11:37:31.601Z,61.30
2019-06-07T11:40:02.642Z,61.30
2019-06-07T11:42:35.294Z,61.70
2019-06-07T11:45:08.033Z,61.60
2019-06-07T11:47:39.330Z,61.90
2019-06-07T11:50:11.823Z,61.20
2019-06-07T11:52:47.644Z,59.50
2019-06-07T11:55:30.667Z,59.60
2019-06-07T11:58:11.145Z,60.00
2019-06-07T12:00:41.053Z,59.70
2019-06-07T12:03:21.232Z,59.30
2019-06-07T12:05:51.928Z,59.90
2019-06-07T12:08:26.406Z,60.70
2019-06-07T12:11:02.514Z,61.30
2019-06-07T12:13:39.847Z,62.70
2019-06-07T12:16:11.269Z,63.00
2019-06-07T12:18:42.233Z,61.60
2019-06-07T12:21:13.667Z,61.60
2019-06-07T12:23:46.895Z,61.20
2019-06-07T12:26:18.582Z,60.50
2019-06-07T12:28:49.254Z,60.90
2019-06-07T12:31:21.102Z,59.70
2019-06-07T12:33:52.025Z,58.00
2019-06-07T12:36:22.587Z,56.80
2019-06-07T12:38:54.416Z,56.60
2019-06-07T12:41:25.004Z,56.90
2019-06-07T12:44:00.661Z,57.00
2019-06-07T12:46:31.309Z,56.90
2019-06-07T12:49:02.220Z,55.90
2019-06-07T12:51:33.093Z,56.20
2019-06-07T12:54:03.881Z,54.10
2019-06-07T12:56:36.012Z,53.80
2019-06-07T12:59:08.474Z,55.20
2019-06-07T13:01:40.158Z,55.30
2019-06-07T13:04:16.255Z,54.30
2019-06-07T13:06:50.492Z,54.40
2019-06-07T13:09:21.890Z,54.40
2019-06-07T13:11:55.772Z,54.30
2019-06-07T13:14:28.430Z,54.20
2019-06-07T13:17:00.269Z,55.20
2019-06-07T13:19:30.951Z,56.20
2019-06-07T13:22:07.921Z,56.80
2019-06-07T13:24:44.842Z,55.70
2019-06-07T13:27:18.379Z,55.80
2019-06-07T13:29:50.169Z,56.00
2019-06-07T13:32:21.656Z,56.30
2019-06-07T13:34:53.306Z,55.80
2019-06-07T13:37:25.452Z,55.70
2019-06-07T13:39:56.225Z,56.10
2019-06-07T13:42:29.158Z,57.90
2019-06-07T13:45:03.573Z,59.20
2019-06-07T13:47:35.461Z,58.80
2019-06-07T13:50:09.319Z,57.80
2019-06-07T13:52:42.085Z,57.20
2019-06-07T13:55:17.806Z,58.30
2019-06-07T13:58:14.195Z,57.00
2019-06-07T14:00:50.601Z,56.70
2019-06-07T14:03:29.229Z,56.40
2019-06-07T14:05:59.342Z,56.70
2019-06-07T14:08:31.101Z,58.30
2019-06-07T14:11:05.214Z,59.30
2019-06-07T14:13:36.704Z,60.40
2019-06-07T14:16:08.195Z,60.70
2019-06-07T14:18:40.676Z,60.90
2019-06-07T14:21:11.476Z,60.70
2019-06-07T14:23:49.342Z,60.30
2019-06-07T14:26:21.548Z,61.70
2019-06-07T14:28:54.170Z,62.60
2019-06-07T14:31:26.299Z,63.10
2019-06-07T14:33:57.067Z,63.20
2019-06-07T14:36:29.015Z,62.90
2019-06-07T14:39:00.333Z,62.10
2019-06-07T14:41:33.611Z,60.10
2019-06-07T14:44:05.637Z,57.60
2019-06-07T14:46:37.357Z,56.60
2019-06-07T14:49:13.740Z,57.00
2019-06-07T14:51:45.773Z,57.00
2019-06-07T14:54:16.580Z,57.00
2019-06-07T14:56:47.425Z,57.40
2019-06-07T14:59:19.594Z,58.70
2019-06-07T15:01:51.392Z,59.60
2019-06-07T15:04:23.386Z,60.40
2019-06-07T15:06:54.109Z,61.90
2019-06-07T15:09:24.854Z,62.60
2019-06-07T15:11:55.618Z,63.20
2019-06-07T15:14:27.556Z,64.00
2019-06-07T15:16:58.407Z,64.80
2019-06-07T15:19:29.154Z,65.30
2019-06-07T15:22:03.227Z,66.30
2019-06-07T15:24:38.903Z,72.40
2019-06-07T15:27:17.719Z,76.70
2019-06-07T15:29:48.950Z,82.20
2019-06-07T15:32:20.307Z,89.20
2019-06-07T15:34:57.458Z,93.50
2019-06-07T15:37:28.889Z,96.10
2019-06-07T15:40:08.908Z,97.70
2019-06-07T15:42:52.509Z,99.10
2019-06-07T15:45:20.908Z,99.90
2019-06-07T15:47:59.140Z,99.90
2019-06-07T15:50:41.265Z,99.90
2019-06-07T15:53:16.721Z,99.90
2019-06-07T15:55:57.689Z,99.90
2019-06-07T15:58:31.251Z,99.90
2019-06-07T16:01:05.573Z,99.90
2019-06-07T16:03:43.576Z,99.90
2019-06-07T16:06:24.976Z,99.90
2019-06-07T16:08:56.211Z,99.90
2019-06-07T16:11:32.679Z,99.90
2019-06-07T16:14:06.228Z,99.90
2019-06-07T16:16:37.305Z,99.90
2019-06-07T16:19:19.796Z,99.90
2019-06-07T16:22:28.957Z,99.90
2019-06-07T16:25:05.975Z,99.90
2019-06-07T16:27:49.513Z,98.70
2019-06-07T16:30:21.777Z,95.70
2019-06-07T16:33:02.862Z,96.60
2019-06-07T16:35:39.058Z,95.30
2019-06-07T16:38:17.890Z,95.50
2019-06-07T16:40:48.795Z,94.50
2019-06-07T16:43:38.564Z,94.40
2019-06-07T16:46:50.917Z,95.20
2019-06-07T16:49:34.537Z,93.30
2019-06-07T16:52:10.388Z,91.60
2019-06-07T16:54:43.616Z,89.80
2019-06-07T16:57:20.458Z,89.70
2019-06-07T17:00:32.694Z,90.40
2019-06-07T17:03:24.619Z,90.00
2019-06-07T17:06:02.379Z,90.50
2019-06-07T17:08:44.230Z,89.60
2019-06-07T17:11:18.651Z,89.70
2019-06-07T17:14:05.651Z,88.30
2019-06-07T17:16:40.869Z,86.10
2019-06-07T17:19:15.153Z,85.30
2019-06-07T17:21:47.510Z,85.50
2019-06-07T17:24:19.525Z,84.90
2019-06-07T17:26:56.485Z,85.30
2019-06-07T17:29:30.571Z,85.60
2019-06-07T17:32:16.028Z,86.20
2019-06-07T17:35:05.006Z,86.10
2019-06-07T17:37:53.999Z,86.20
2019-06-07T17:40:32.258Z,85.30
2019-06-07T17:43:29.910Z,84.90
2019-06-07T17:46:33.812Z,85.30
2019-06-07T17:49:31.437Z,86.10
2019-06-07T17:52:09.232Z,85.20
2019-06-07T17:55:16.913Z,85.00
2019-06-07T17:57:57.800Z,84.90
2019-06-07T18:00:59.611Z,84.80
2019-06-07T18:03:42.983Z,85.10
2019-06-07T18:06:40.420Z,85.70
2019-06-07T18:09:18.543Z,85.10
2019-06-07T18:11:52.245Z,85.90
2019-06-07T18:14:26.196Z,86.10
2019-06-07T18:17:06.030Z,86.00
2019-06-07T18:22:30.189Z,85.60
2019-06-07T18:25:05.137Z,85.00
2019-06-07T18:27:46.551Z,85.00
2019-06-07T18:30:25.924Z,84.60
2019-06-07T18:33:00.975Z,84.40
2019-06-07T18:35:34.873Z,83.80
2019-06-07T18:38:10.875Z,83.80
2019-06-07T18:40:40.790Z,83.70
2019-06-07T18:43:26.522Z,84.00
2019-06-07T18:46:22.836Z,84.20
2019-06-07T18:48:58.789Z,84.40
2019-06-07T18:51:32.090Z,83.90
2019-06-07T18:54:05.927Z,83.70
2019-06-07T18:56:40.073Z,83.00
2019-06-07T18:59:23.743Z,82.40
2019-06-07T19:02:00.155Z,82.70
2019-06-07T19:04:43.288Z,82.20
2019-06-07T19:07:24.395Z,82.20
2019-06-07T19:10:19.594Z,81.80
2019-06-07T19:13:05.224Z,81.80
2019-06-07T20:09:36.945Z,80.70
2019-06-07T20:12:19.068Z,80.60
2019-06-07T20:15:13.585Z,80.30
2019-06-07T20:17:31.363Z,80.50
2019-06-07T20:20:31.595Z,80.50
2019-06-07T20:23:09.338Z,80.70
2019-06-07T20:25:48.830Z,80.60
2019-06-07T20:28:32.449Z,80.70
2019-06-07T20:31:08.296Z,80.60
2019-06-07T20:33:53.678Z,80.70
2019-06-07T20:36:29.326Z,81.00
2019-06-07T20:39:17.626Z,81.10
2019-06-07T20:41:57.095Z,81.50
2019-06-07T20:44:33.326Z,81.50
2019-06-07T20:47:18.325Z,82.00
2019-06-07T20:50:02.496Z,81.60
2019-06-07T20:52:45.187Z,81.60
2019-06-07T20:55:25.888Z,81.50
2019-06-07T20:58:05.607Z,82.10
2019-06-07T21:00:48.856Z,82.00
2019-06-07T21:03:22.772Z,82.20
2019-06-07T21:06:24.717Z,82.60
2019-06-07T21:08:55.665Z,82.40
2019-06-07T21:11:36.443Z,82.70
2019-06-07T21:14:12.436Z,83.00
2019-06-07T21:16:47.885Z,82.90
2019-06-07T21:19:22.538Z,83.20
2019-06-07T21:21:55.941Z,83.40
2019-06-07T21:24:30.198Z,83.80
2019-06-07T21:27:07.493Z,83.80
2019-06-07T21:29:39.288Z,84.00
2019-06-07T21:32:10.216Z,84.00
2019-06-07T21:34:43.773Z,84.10
2019-06-07T21:37:14.943Z,84.20
2019-06-07T21:39:46.119Z,84.10
2019-06-07T21:42:49.233Z,84.20
2019-06-07T22:22:07.517Z,82.70
2019-06-07T22:24:44.775Z,82.80
2019-06-07T22:27:52.360Z,82.70
2019-06-07T22:30:53.609Z,82.80
2019-06-07T22:34:01.133Z,82.80
2019-06-07T22:36:35.932Z,82.80
2019-06-07T22:39:11.948Z,82.90
2019-06-07T22:41:52.491Z,82.90
2019-06-07T22:44:28.770Z,82.90
2019-06-07T22:47:02.881Z,83.00
2019-06-07T22:49:35.288Z,83.10
2019-06-07T22:52:09.331Z,83.10
2019-06-07T22:54:41.922Z,83.10
2019-06-07T23:21:57.576Z,83.40
